Time;durP1;ratioP1;P1;durP2;ratioP2;P2;SDS_P1;SDS_P2;PMS_P1;PMS_P2;Temp;Humidity;BMP_temperature;BMP_pressure;BME280_temperature;BME280_humidity;BME280_pressure;Samples;Min_cycle;Max_cycle;Signal;HPM_P1;HPM_P2
2023/02/07 00:01:11;;;;;;;5.97;3.90;;;5.90;80.20;;;;;;5079391;28;20123;-79
2023/02/07 00:03:37;;;;;;;8.10;4.05;;;6.00;80.30;;;;;;5079232;28;20097;-79
2023/02/07 00:06:18;;;;;;;6.43;3.95;;;5.90;80.20;;;;;;5062640;28;20020;-79
2023/02/07 00:08:44;;;;;;;6.10;4.18;;;5.90;80.20;;;;;;5078760;28;20025;-78
2023/02/07 00:11:15;;;;;;;6.68;4.22;;;5.90;80.20;;;;;;5061996;28;20396;-79
2023/02/07 00:13:41;;;;;;;5.32;3.95;;;5.90;80.30;;;;;;5078567;28;20028;-79
2023/02/07 00:16:07;;;;;;;6.88;4.22;;;5.80;80.20;;;;;;5078213;28;20062;-78
2023/02/07 00:18:33;;;;;;;6.25;3.83;;;5.80;80.20;;;;;;5061610;28;20469;-79
2023/02/07 00:21:01;;;;;;;4.90;4.07;;;5.80;80.20;;;;;;5078544;28;20016;-79
2023/02/07 00:23:27;;;;;;;6.10;4.40;;;5.80;80.20;;;;;;5079223;28;20032;-78
2023/02/07 00:25:53;;;;;;;7.00;4.60;;;5.80;80.20;;;;;;5095153;28;20032;-79
2023/02/07 00:28:19;;;;;;;6.68;4.38;;;5.80;80.20;;;;;;5096508;28;20077;-78
2023/02/07 00:30:45;;;;;;;6.80;4.50;;;5.80;80.20;;;;;;5061599;28;20039;-78
2023/02/07 00:33:11;;;;;;;6.40;4.45;;;5.80;80.20;;;;;;5078026;28;20040;-79
2023/02/07 00:35:36;;;;;;;7.05;4.18;;;5.70;80.10;;;;;;5061642;28;20522;-76
2023/02/07 00:38:03;;;;;;;5.95;4.50;;;5.70;80.10;;;;;;5062026;28;20059;-78
2023/02/07 00:40:29;;;;;;;6.75;4.80;;;5.70;80.10;;;;;;5060958;28;20457;-78
2023/02/07 00:42:55;;;;;;;7.43;4.90;;;5.70;80.10;;;;;;5078027;28;20067;-79
2023/02/07 00:45:21;;;;;;;6.65;4.95;;;5.70;80.20;;;;;;5061311;28;20532;-79
2023/02/07 00:47:47;;;;;;;6.68;4.60;;;5.70;80.10;;;;;;5078532;28;20121;-79
2023/02/07 00:50:12;;;;;;;7.13;4.78;;;5.70;80.20;;;;;;5061160;28;20484;-78
2023/02/07 00:52:38;;;;;;;8.27;5.20;;;5.60;80.10;;;;;;5077776;28;20395;-79
2023/02/07 00:55:06;;;;;;;6.82;5.07;;;5.60;80.20;;;;;;5061391;28;20469;-79
2023/02/07 00:57:32;;;;;;;6.47;5.20;;;5.60;80.20;;;;;;5078280;28;20032;-78
2023/02/07 00:59:58;;;;;;;7.18;5.10;;;5.60;80.20;;;;;;5095516;28;20094;-78
2023/02/07 01:02:23;;;;;;;8.27;5.70;;;5.60;80.80;;;;;;5060795;28;20032;-79
2023/02/07 01:04:49;;;;;;;7.57;4.82;;;5.50;80.10;;;;;;5061670;28;20065;-78
2023/02/07 01:07:15;;;;;;;7.18;5.13;;;5.60;80.10;;;;;;5077625;28;20055;-79
2023/02/07 01:09:40;;;;;;;7.95;5.50;;;5.50;80.10;;;;;;5077428;28;20088;-78
2023/02/07 01:12:06;;;;;;;8.30;5.45;;;5.50;80.10;;;;;;5077294;28;20123;-78
2023/02/07 01:14:32;;;;;;;6.93;5.18;;;5.50;80.10;;;;;;5077440;28;20105;-78
2023/02/07 01:16:58;;;;;;;7.28;4.93;;;5.50;80.10;;;;;;5060316;28;20036;-79
2023/02/07 01:19:23;;;;;;;7.85;5.05;;;5.50;80.10;;;;;;5077441;28;20029;-78
2023/02/07 01:21:49;;;;;;;7.22;4.95;;;5.50;80.10;;;;;;5077042;28;20024;-78
2023/02/07 01:24:15;;;;;;;8.18;4.97;;;5.40;80.10;;;;;;5060424;28;20483;-78
2023/02/07 01:26:41;;;;;;;6.15;4.72;;;5.40;80.10;;;;;;5095279;28;20028;-78
2023/02/07 01:29:09;;;;;;;6.53;4.90;;;5.40;80.10;;;;;;5061038;28;20417;-79
2023/02/07 01:31:35;;;;;;;7.78;5.10;;;5.40;80.10;;;;;;5094884;28;20027;-78
2023/02/07 01:34:01;;;;;;;9.02;5.55;;;5.40;80.10;;;;;;5077063;28;20476;-78
2023/02/07 01:36:28;;;;;;;8.98;5.47;;;5.40;80.10;;;;;;5076753;28;20020;-79
2023/02/07 01:38:55;;;;;;;8.15;5.22;;;5.40;80.10;;;;;;5077535;28;20086;-78
2023/02/07 01:41:22;;;;;;;7.43;5.15;;;5.30;80.10;;;;;;5095017;28;20024;-79
2023/02/07 01:43:58;;;;;;;7.38;5.05;;;5.30;80.10;;;;;;5076441;28;20032;-79
2023/02/07 01:46:25;;;;;;;8.77;5.25;;;5.30;80.10;;;;;;5060108;28;20020;-78
2023/02/07 01:48:54;;;;;;;8.63;5.85;;;5.30;80.10;;;;;;5094670;28;20024;-79
2023/02/07 01:51:21;;;;;;;7.57;5.38;;;5.30;80.20;;;;;;5076513;28;20048;-79
2023/02/07 01:53:47;;;;;;;7.57;5.18;;;5.30;80.20;;;;;;5075955;28;20386;-78
2023/02/07 01:56:15;;;;;;;8.10;5.82;;;5.20;80.20;;;;;;5059996;28;20453;-78
2023/02/07 01:58:42;;;;;;;8.23;4.95;;;5.20;80.20;;;;;;5076734;28;20027;-78
2023/02/07 02:01:21;;;;;;;9.00;5.47;;;5.20;80.20;;;;;;5060108;28;20459;-79
2023/02/07 02:03:49;;;;;;;8.77;6.15;;;5.20;80.20;;;;;;5077153;28;20510;-79
2023/02/07 02:06:16;;;;;;;8.75;5.65;;;5.20;80.20;;;;;;5076239;28;20085;-78
2023/02/07 02:08:42;;;;;;;7.45;5.10;;;5.20;80.20;;;;;;5076416;28;20058;-78
2023/02/07 02:11:29;;;;;;;7.70;5.53;;;5.20;80.20;;;;;;5076553;28;20023;-78
2023/02/07 02:14:31;;;;;;;9.45;5.45;;;5.10;80.10;;;;;;5076308;28;20086;-78
2023/02/07 02:17:20;;;;;;;7.35;5.35;;;5.10;80.10;;;;;;5068513;28;20036;-78
2023/02/07 02:20:05;;;;;;;7.22;4.93;;;5.10;80.10;;;;;;5076968;28;20024;-79
2023/02/07 02:22:47;;;;;;;7.20;5.00;;;5.10;80.20;;;;;;5076141;28;20032;-79
2023/02/07 02:25:35;;;;;;;7.78;5.65;;;5.00;80.10;;;;;;5076701;28;20476;-79
2023/02/07 02:28:10;;;;;;;8.43;5.10;;;5.10;80.20;;;;;;5094250;28;20039;-79
2023/02/07 02:31:01;;;;;;;8.88;6.40;;;5.00;80.10;;;;;;5076733;28;20054;-79
2023/02/07 02:33:44;;;;;;;7.93;5.63;;;5.00;80.20;;;;;;5076622;28;20032;-78
2023/02/07 02:36:47;;;;;;;9.57;5.28;;;5.00;80.20;;;;;;5059483;28;20085;-78
2023/02/07 02:39:48;;;;;;;7.38;5.22;;;4.90;80.20;;;;;;5075872;28;20020;-78
2023/02/07 02:42:36;;;;;;;8.48;5.20;;;5.00;80.30;;;;;;5051558;28;20058;-78
2023/02/07 02:45:09;;;;;;;7.45;5.25;;;4.90;80.20;;;;;;5076212;28;20066;-78
2023/02/07 02:47:35;;;;;;;8.82;5.28;;;4.90;80.20;;;;;;5076029;28;20024;-79
2023/02/07 02:50:02;;;;;;;8.90;5.95;;;4.90;80.20;;;;;;5075299;28;20044;-78
2023/02/07 02:52:28;;;;;;;10.32;6.43;;;4.90;80.20;;;;;;5059617;28;20056;-79
2023/02/07 02:54:54;;;;;;;10.27;6.47;;;4.90;80.20;;;;;;5075870;28;20028;-79
2023/02/07 02:57:45;;;;;;;8.45;5.95;;;4.90;80.20;;;;;;5076237;28;20135;-79
2023/02/07 03:00:23;;;;;;;8.85;5.88;;;4.90;80.20;;;;;;5059339;28;20028;-79
2023/02/07 03:03:27;;;;;;;8.25;6.07;;;4.80;80.20;;;;;;5059386;28;20066;-79
2023/02/07 03:06:16;;;;;;;9.23;6.25;;;4.80;80.20;;;;;;5076270;28;20461;-78
2023/02/07 03:08:52;;;;;;;9.20;6.35;;;4.80;80.80;;;;;;5075498;28;20032;-79
2023/02/07 03:11:23;;;;;;;10.93;6.38;;;4.80;80.20;;;;;;5075796;28;20032;-78
2023/02/07 03:14:21;;;;;;;8.00;5.60;;;4.80;80.20;;;;;;5075647;28;20039;-78
2023/02/07 03:17:09;;;;;;;9.45;6.35;;;4.80;80.20;;;;;;5076190;28;20099;-78
2023/02/07 03:19:48;;;;;;;9.98;6.18;;;4.70;80.10;;;;;;5093310;28;20415;-78
2023/02/07 03:22:18;;;;;;;8.40;6.43;;;4.70;80.20;;;;;;5075654;28;20528;-78
2023/02/07 03:24:48;;;;;;;10.20;7.43;;;4.70;80.20;;;;;;5075487;28;20032;-78
2023/02/07 03:27:17;;;;;;;9.73;6.80;;;4.70;80.20;;;;;;5075339;28;20059;-78
2023/02/07 03:29:46;;;;;;;9.20;6.53;;;4.70;80.20;;;;;;5075302;28;20024;-78
2023/02/07 03:32:13;;;;;;;9.85;7.05;;;4.70;80.20;;;;;;5075187;28;20032;-79
2023/02/07 03:35:00;;;;;;;10.55;6.85;;;4.70;80.20;;;;;;5075231;28;20029;-79
2023/02/07 03:37:49;;;;;;;11.38;7.57;;;4.70;80.30;;;;;;5075033;28;20028;-79
2023/02/07 03:40:15;;;;;;;9.43;6.82;;;4.60;80.20;;;;;;5075583;28;20020;-79
2023/02/07 03:42:56;;;;;;;9.68;7.25;;;4.60;80.10;;;;;;5075070;28;20078;-78
2023/02/07 03:45:22;;;;;;;9.20;6.38;;;4.60;80.20;;;;;;5075243;28;20028;-78
2023/02/07 03:47:48;;;;;;;10.55;7.57;;;4.60;80.20;;;;;;5059020;28;20081;-78
2023/02/07 03:50:15;;;;;;;9.43;6.72;;;4.60;80.20;;;;;;5074834;28;20072;-78
2023/02/07 03:52:41;;;;;;;9.50;6.97;;;4.60;80.20;;;;;;5093083;28;20035;-78
2023/02/07 03:55:07;;;;;;;10.18;7.05;;;4.60;80.20;;;;;;5091798;28;20592;-78
2023/02/07 03:57:33;;;;;;;10.52;7.18;;;4.50;80.20;;;;;;5075167;28;20028;-78
2023/02/07 03:59:59;;;;;;;10.50;7.35;;;4.60;80.20;;;;;;5093193;28;20051;-77
2023/02/07 04:02:24;;;;;;;10.05;7.22;;;4.50;80.20;;;;;;5058262;28;20127;-79
2023/02/07 04:04:50;;;;;;;10.43;7.40;;;4.50;80.20;;;;;;5074767;28;20028;-79
2023/02/07 04:07:16;;;;;;;10.98;7.50;;;4.50;80.20;;;;;;5074660;28;20032;-78
2023/02/07 04:09:42;;;;;;;10.80;7.45;;;4.50;80.20;;;;;;5074945;28;20067;-78
2023/02/07 04:12:07;;;;;;;10.52;7.00;;;4.50;80.20;;;;;;5075665;28;20028;-79
2023/02/07 04:14:34;;;;;;;9.63;7.03;;;4.50;80.20;;;;;;5075247;28;20032;-78
2023/02/07 04:17:00;;;;;;;10.77;7.65;;;4.50;80.20;;;;;;5078235;28;20392;-78
2023/02/07 04:19:26;;;;;;;9.93;6.95;;;4.40;80.10;;;;;;5062337;28;20460;-77
2023/02/07 04:21:51;;;;;;;10.02;7.10;;;4.50;80.20;;;;;;5061625;28;20383;-78
2023/02/07 04:24:17;;;;;;;10.75;8.25;;;4.40;80.10;;;;;;5078392;28;20495;-78
2023/02/07 04:26:43;;;;;;;9.88;7.35;;;4.40;80.20;;;;;;5078165;28;20068;-79
2023/02/07 04:29:08;;;;;;;11.18;7.35;;;4.40;80.20;;;;;;5061506;28;20044;-78
2023/02/07 04:31:36;;;;;;;11.75;8.00;;;4.40;80.20;;;;;;5061561;28;20059;-78
2023/02/07 04:34:03;;;;;;;10.80;8.20;;;4.40;80.20;;;;;;5078510;28;20114;-79
2023/02/07 04:36:29;;;;;;;11.02;7.88;;;4.30;80.20;;;;;;5095928;28;20107;-77
2023/02/07 04:38:55;;;;;;;11.02;7.68;;;4.30;80.10;;;;;;5061284;28;20130;-78
2023/02/07 04:41:21;;;;;;;10.35;8.02;;;4.30;80.20;;;;;;5062074;28;20066;-78
2023/02/07 04:43:47;;;;;;;11.48;8.18;;;4.30;80.20;;;;;;5061523;28;20028;-78
2023/02/07 04:46:13;;;;;;;11.45;7.95;;;4.30;80.20;;;;;;5078809;28;20116;-78
2023/02/07 04:48:38;;;;;;;11.07;7.15;;;4.30;80.20;;;;;;5060902;28;20198;-77
2023/02/07 04:51:05;;;;;;;10.75;7.70;;;4.20;80.10;;;;;;5078507;28;20043;-78
2023/02/07 04:53:32;;;;;;;10.98;8.15;;;4.20;80.20;;;;;;5094686;28;20093;-78
2023/02/07 04:55:58;;;;;;;10.95;7.60;;;4.20;80.20;;;;;;5077961;28;20127;-77
2023/02/07 04:58:24;;;;;;;10.63;7.82;;;4.20;80.20;;;;;;5077644;28;20133;-77
2023/02/07 05:00:51;;;;;;;11.40;7.95;;;4.20;80.20;;;;;;5077793;28;20032;-78
2023/02/07 05:03:17;;;;;;;9.93;7.40;;;4.20;80.20;;;;;;5077588;28;20461;-77
2023/02/07 05:05:44;;;;;;;10.93;7.32;;;4.20;80.10;;;;;;5096114;28;20043;-77
2023/02/07 05:08:10;;;;;;;10.98;8.35;;;4.20;80.20;;;;;;5060452;28;20032;-78
2023/02/07 05:10:37;;;;;;;10.93;8.10;;;4.10;80.10;;;;;;5077539;28;20036;-79
2023/02/07 05:13:02;;;;;;;11.38;7.80;;;4.10;80.10;;;;;;5077217;28;20034;-77
2023/02/07 05:15:29;;;;;;;11.25;8.38;;;4.10;80.10;;;;;;5094093;28;20067;-78
2023/02/07 05:17:55;;;;;;;13.05;9.13;;;4.10;80.10;;;;;;5060364;28;20110;-78
2023/02/07 05:20:22;;;;;;;10.98;7.78;;;4.10;80.10;;;;;;5077673;28;20040;-78
2023/02/07 05:22:48;;;;;;;10.50;7.70;;;4.10;80.10;;;;;;5076966;28;20024;-77
2023/02/07 05:25:14;;;;;;;13.43;9.75;;;4.10;80.10;;;;;;5093806;28;20089;-77
2023/02/07 05:27:40;;;;;;;11.05;8.15;;;4.10;80.10;;;;;;5058813;28;20030;-78
2023/02/07 05:30:07;;;;;;;12.27;7.97;;;4.00;80.00;;;;;;5076902;28;20059;-79
2023/02/07 05:35:17;;;;;;;12.93;8.35;;;4.00;80.00;;;;;;5095413;28;20110;-78
2023/02/07 05:37:42;;;;;;;11.93;8.20;;;4.00;80.00;;;;;;5076816;28;20051;-78
2023/02/07 05:40:09;;;;;;;11.00;7.90;;;4.00;80.00;;;;;;5076696;28;20035;-78
2023/02/07 05:42:35;;;;;;;11.77;8.70;;;4.00;80.10;;;;;;5094643;28;20025;-79
2023/02/07 05:45:01;;;;;;;11.85;8.00;;;4.00;80.10;;;;;;5060221;28;20035;-78
2023/02/07 05:47:27;;;;;;;12.50;7.60;;;3.90;80.00;;;;;;5060220;28;20439;-79
2023/02/07 05:49:52;;;;;;;11.35;8.10;;;3.90;80.00;;;;;;5076171;28;20075;-77
2023/02/07 05:52:18;;;;;;;12.02;8.50;;;3.90;80.00;;;;;;5093615;28;20060;-78
2023/02/07 05:54:44;;;;;;;12.10;8.05;;;3.90;80.00;;;;;;5076616;28;20308;-78
2023/02/07 05:57:10;;;;;;;13.25;8.32;;;3.90;80.00;;;;;;5076908;28;20020;-78
2023/02/07 05:59:35;;;;;;;12.52;8.38;;;3.90;80.00;;;;;;5076337;28;20040;-78
2023/02/07 06:02:01;;;;;;;12.13;8.07;;;3.90;80.00;;;;;;5077236;28;20043;-78
2023/02/07 06:04:27;;;;;;;13.48;9.45;;;3.80;80.00;;;;;;5059987;28;20371;-78
2023/02/07 06:06:52;;;;;;;12.70;8.85;;;3.80;79.90;;;;;;5076043;28;20044;-78
2023/02/07 06:09:18;;;;;;;12.18;8.30;;;3.80;80.00;;;;;;5059562;28;20107;-78
2023/02/07 06:11:44;;;;;;;12.57;8.52;;;3.80;80.00;;;;;;5076049;28;20028;-77
2023/02/07 06:14:10;;;;;;;13.25;9.00;;;3.80;80.00;;;;;;5059439;28;20039;-78
2023/02/07 06:16:35;;;;;;;13.07;9.13;;;3.70;79.90;;;;;;5076057;28;20031;-77
2023/02/07 06:19:01;;;;;;;13.25;9.15;;;3.70;79.90;;;;;;5059911;28;20032;-78
2023/02/07 06:21:27;;;;;;;14.32;9.68;;;3.70;79.90;;;;;;5076593;28;20085;-77
2023/02/07 06:23:52;;;;;;;12.13;8.65;;;3.70;79.90;;;;;;5075983;28;20396;-78
2023/02/07 06:26:18;;;;;;;13.48;9.43;;;3.70;80.00;;;;;;5094088;28;20020;-77
2023/02/07 06:28:44;;;;;;;14.90;10.18;;;3.70;79.90;;;;;;5092793;28;20028;-78
2023/02/07 06:31:10;;;;;;;14.98;9.25;;;3.70;80.00;;;;;;5059319;28;20028;-78
2023/02/07 06:33:35;;;;;;;15.15;9.57;;;3.70;79.90;;;;;;5059115;28;20484;-78
2023/02/07 06:36:02;;;;;;;13.27;9.48;;;3.70;79.90;;;;;;5075751;28;20032;-78
2023/02/07 06:38:27;;;;;;;15.90;10.45;;;3.70;80.60;;;;;;5075251;28;20081;-79
2023/02/07 06:40:53;;;;;;;14.88;9.55;;;3.60;79.90;;;;;;5059303;28;20473;-78
2023/02/07 06:43:19;;;;;;;14.38;9.73;;;3.60;79.90;;;;;;5076160;28;20060;-79
2023/02/07 06:45:45;;;;;;;13.70;9.82;;;3.70;79.90;;;;;;5093130;28;20483;-79
2023/02/07 06:48:11;;;;;;;16.70;10.48;;;3.70;79.90;;;;;;5075682;28;20077;-80
2023/02/07 06:50:37;;;;;;;13.23;9.48;;;3.60;79.80;;;;;;5042014;28;20059;-78
2023/02/07 06:53:02;;;;;;;15.82;10.13;;;3.70;79.90;;;;;;5075301;28;20104;-78
2023/02/07 06:55:29;;;;;;;14.63;9.88;;;3.60;79.80;;;;;;5043313;28;20040;-80
2023/02/07 06:57:55;;;;;;;16.73;10.23;;;3.60;79.80;;;;;;5076677;28;20127;-86
2023/02/07 07:00:22;;;;;;;15.50;9.75;;;3.70;79.80;;;;;;5059889;28;20032;-79
2023/02/07 07:02:48;;;;;;;15.77;10.07;;;3.60;79.80;;;;;;5075674;28;20039;-80
2023/02/07 07:05:14;;;;;;;13.27;9.18;;;3.60;79.80;;;;;;5076213;28;20032;-79
2023/02/07 07:07:40;;;;;;;18.02;11.38;;;3.70;79.80;;;;;;5075349;28;20035;-79
2023/02/07 07:10:06;;;;;;;15.25;10.15;;;3.60;79.70;;;;;;5076541;28;20077;-79
2023/02/07 07:12:32;;;;;;;14.68;9.73;;;3.60;79.80;;;;;;5075485;28;20027;-79
2023/02/07 07:14:58;;;;;;;16.85;10.10;;;3.60;79.80;;;;;;5075435;28;20040;-79
2023/02/07 07:17:24;;;;;;;15.32;9.57;;;3.60;79.80;;;;;;5075813;28;20537;-78
2023/02/07 07:19:50;;;;;;;14.13;9.80;;;3.60;79.70;;;;;;5094224;28;20084;-79
2023/02/07 07:22:16;;;;;;;15.23;10.10;;;3.60;79.70;;;;;;5059472;28;20067;-79
2023/02/07 07:24:42;;;;;;;16.90;11.07;;;3.60;79.70;;;;;;5059217;28;20059;-79
2023/02/07 07:27:08;;;;;;;16.98;10.52;;;3.60;79.70;;;;;;5076250;28;20032;-79
2023/02/07 07:29:34;;;;;;;13.93;10.15;;;3.60;79.70;;;;;;5093550;28;20024;-79
2023/02/07 07:32:00;;;;;;;17.83;10.65;;;3.60;79.70;;;;;;5092193;28;20401;-79
2023/02/07 07:34:26;;;;;;;18.15;10.82;;;3.60;79.70;;;;;;5075770;28;20036;-79
2023/02/07 07:36:55;;;;;;;16.20;11.10;;;3.60;79.70;;;;;;5093621;28;20085;-78
2023/02/07 07:39:22;;;;;;;16.58;10.80;;;3.60;79.70;;;;;;5093264;28;20077;-79
2023/02/07 07:41:48;;;;;;;16.10;9.95;;;3.60;79.70;;;;;;5058340;28;20038;-79
2023/02/07 07:44:28;;;;;;;15.32;10.23;;;3.60;79.70;;;;;;5061038;28;20038;-78
2023/02/07 07:46:53;;;;;;;15.30;10.57;;;3.60;79.70;;;;;;5075347;28;20028;-79
2023/02/07 07:49:19;;;;;;;17.02;10.48;;;3.60;79.80;;;;;;5074723;28;20048;-79
2023/02/07 07:51:45;;;;;;;16.50;10.45;;;3.50;79.70;;;;;;5093234;28;20056;-78
2023/02/07 07:54:12;;;;;;;14.02;9.88;;;3.50;79.70;;;;;;5061821;28;20052;-79
2023/02/07 07:56:38;;;;;;;14.85;10.13;;;3.60;79.70;;;;;;5079079;28;20118;-79
2023/02/07 07:59:04;;;;;;;17.38;10.48;;;3.60;79.70;;;;;;5062492;28;20432;-78
2023/02/07 08:01:29;;;;;;;16.35;10.77;;;3.50;79.60;;;;;;5097713;28;20067;-79
2023/02/07 08:03:55;;;;;;;16.33;10.27;;;3.60;79.70;;;;;;5095998;28;20020;-79
2023/02/07 08:06:21;;;;;;;15.05;9.63;;;3.50;79.60;;;;;;5045239;28;20032;-78
2023/02/07 08:08:47;;;;;;;15.48;10.70;;;3.60;79.70;;;;;;5079040;28;20027;-79
2023/02/07 08:11:13;;;;;;;14.70;10.25;;;3.50;79.60;;;;;;5096240;28;20040;-78
2023/02/07 08:13:38;;;;;;;15.88;10.48;;;3.60;79.70;;;;;;5062587;28;20322;-79
2023/02/07 08:16:09;;;;;;;15.65;10.48;;;3.50;79.60;;;;;;5062179;28;20028;-79
2023/02/07 08:18:36;;;;;;;15.25;10.63;;;3.50;79.60;;;;;;5097364;28;20024;-79
2023/02/07 08:21:02;;;;;;;13.88;9.82;;;3.50;79.60;;;;;;5061938;28;20024;-79
2023/02/07 08:23:27;;;;;;;15.68;10.10;;;3.50;79.60;;;;;;5078465;28;20028;-79
2023/02/07 08:25:53;;;;;;;13.68;9.27;;;3.50;79.60;;;;;;5078263;28;20085;-79
2023/02/07 08:28:20;;;;;;;15.00;10.13;;;3.50;79.60;;;;;;5078232;28;20032;-79
2023/02/07 08:30:46;;;;;;;15.73;11.00;;;3.50;79.60;;;;;;5061710;28;20496;-79
2023/02/07 08:33:13;;;;;;;14.73;10.57;;;3.50;79.60;;;;;;5061916;28;20377;-79
2023/02/07 08:35:39;;;;;;;14.48;10.15;;;3.50;79.60;;;;;;5096353;28;20080;-79
2023/02/07 08:38:05;;;;;;;13.88;9.50;;;3.50;79.60;;;;;;5078579;28;20028;-79
2023/02/07 08:40:31;;;;;;;13.98;9.35;;;3.50;79.60;;;;;;5062235;28;20028;-79
2023/02/07 08:42:58;;;;;;;16.38;10.35;;;3.50;79.60;;;;;;5061765;28;20028;-79
2023/02/07 08:45:24;;;;;;;14.82;10.38;;;3.60;79.70;;;;;;5061695;28;20028;-79
2023/02/07 08:47:50;;;;;;;13.73;9.75;;;3.50;79.60;;;;;;5078241;28;20030;-78
2023/02/07 08:50:16;;;;;;;14.63;10.45;;;3.50;79.60;;;;;;5095061;28;20062;-80
2023/02/07 08:52:42;;;;;;;14.32;10.68;;;3.50;79.60;;;;;;5096148;28;20048;-79
2023/02/07 08:55:09;;;;;;;15.88;10.48;;;3.50;79.60;;;;;;5077614;28;20039;-79
2023/02/07 08:57:34;;;;;;;14.20;9.63;;;3.60;79.60;;;;;;5061631;28;20074;-79
2023/02/07 09:00:00;;;;;;;14.55;10.15;;;3.50;79.60;;;;;;5061422;28;20400;-79
2023/02/07 09:02:27;;;;;;;15.43;10.10;;;3.50;79.60;;;;;;5078368;28;20039;-79
2023/02/07 09:04:52;;;;;;;14.57;10.75;;;3.50;79.60;;;;;;5077781;28;20027;-79
2023/02/07 09:07:19;;;;;;;13.98;9.93;;;3.60;79.60;;;;;;5077832;28;20353;-79
2023/02/07 09:09:45;;;;;;;15.38;10.65;;;3.60;79.60;;;;;;5077714;28;20032;-80
2023/02/07 09:12:11;;;;;;;15.88;11.02;;;3.60;79.60;;;;;;5043962;28;20109;-79
2023/02/07 09:14:38;;;;;;;14.40;10.13;;;3.60;79.60;;;;;;5077746;28;20093;-79
2023/02/07 09:17:06;;;;;;;14.50;10.10;;;3.60;79.60;;;;;;5077667;28;20074;-79
2023/02/07 09:19:31;;;;;;;14.75;9.98;;;3.60;79.60;;;;;;5094912;28;20462;-79
2023/02/07 09:21:57;;;;;;;14.15;10.07;;;3.60;79.60;;;;;;5077761;28;20043;-80
2023/02/07 09:24:23;;;;;;;13.73;9.55;;;3.60;79.60;;;;;;5095207;28;20013;-79
2023/02/07 09:26:49;;;;;;;15.73;10.35;;;3.60;79.60;;;;;;5078878;28;20038;-79
2023/02/07 09:29:15;;;;;;;16.45;10.95;;;3.60;79.60;;;;;;5077954;28;20473;-80
2023/02/07 09:31:42;;;;;;;13.07;9.18;;;3.60;79.60;;;;;;5061531;28;20051;-80
2023/02/07 09:34:09;;;;;;;13.73;9.95;;;3.60;79.60;;;;;;5077782;28;20028;-80
2023/02/07 09:36:35;;;;;;;13.55;10.15;;;3.60;79.60;;;;;;5077304;28;20028;-80
2023/02/07 09:39:01;;;;;;;15.13;10.38;;;3.70;79.60;;;;;;5095903;28;20028;-80
2023/02/07 09:41:45;;;;;;;14.60;10.18;;;3.60;79.60;;;;;;5095340;28;20028;-80
2023/02/07 09:44:27;;;;;;;14.50;10.38;;;3.70;79.70;;;;;;5094573;28;20368;-78
2023/02/07 09:47:22;;;;;;;15.38;10.45;;;3.70;79.60;;;;;;5095387;28;20028;-80
2023/02/07 09:50:13;;;;;;;14.83;10.30;;;3.70;79.60;;;;;;5056078;28;20075;-80
2023/02/07 09:52:47;;;;;;;16.45;10.32;;;3.70;79.60;;;;;;5077211;28;20055;-80
2023/02/07 09:55:31;;;;;;;16.45;11.13;;;3.70;79.50;;;;;;5076522;28;20032;-79
2023/02/07 09:58:13;;;;;;;16.58;10.25;;;3.70;79.60;;;;;;5077148;28;20031;-80
2023/02/07 10:00:41;;;;;;;14.68;10.35;;;3.70;79.60;;;;;;5093918;28;20039;-80
2023/02/07 10:03:19;;;;;;;17.73;10.70;;;3.70;79.60;;;;;;5060130;28;20549;-79
2023/02/07 10:05:59;;;;;;;18.02;11.77;;;3.70;79.70;;;;;;5094687;28;20526;-79
2023/02/07 10:08:26;;;;;;;15.95;11.15;;;3.80;79.70;;;;;;5076934;28;20069;-80
2023/02/07 10:11:07;;;;;;;15.98;10.93;;;3.80;79.70;;;;;;5076119;28;20105;-80
2023/02/07 10:13:57;;;;;;;17.90;11.55;;;3.80;79.70;;;;;;5059539;28;20456;-80
2023/02/07 10:16:47;;;;;;;16.83;11.18;;;3.80;79.80;;;;;;5094672;28;20069;-80
2023/02/07 10:19:28;;;;;;;16.98;11.20;;;3.80;79.80;;;;;;5076750;28;20142;-80
2023/02/07 10:22:23;;;;;;;16.38;11.18;;;3.80;80.40;;;;;;5076427;28;20062;-80
2023/02/07 10:25:07;;;;;;;17.58;11.48;;;3.80;79.80;;;;;;5094655;28;20024;-80
2023/02/07 10:27:47;;;;;;;16.50;11.63;;;3.80;79.80;;;;;;5076839;28;20032;-80
2023/02/07 10:30:23;;;;;;;17.08;11.13;;;3.80;79.80;;;;;;5093436;28;20019;-80
2023/02/07 10:32:50;;;;;;;19.10;11.23;;;3.90;79.90;;;;;;5060539;28;20043;-80
2023/02/07 10:35:23;;;;;;;16.05;10.85;;;3.90;79.80;;;;;;5060223;28;20050;-80
2023/02/07 10:37:54;;;;;;;15.85;11.27;;;3.90;79.90;;;;;;5093194;28;20028;-80
2023/02/07 10:40:53;;;;;;;19.00;11.82;;;3.90;80.50;;;;;;5094448;28;20503;-79
2023/02/07 10:43:24;;;;;;;14.93;10.57;;;3.90;79.90;;;;;;5076137;28;20112;-80
2023/02/07 10:45:54;;;;;;;18.48;11.20;;;4.00;79.90;;;;;;5092957;28;20531;-80
2023/02/07 10:48:20;;;;;;;15.77;10.57;;;4.00;79.90;;;;;;5075924;28;20422;-80
2023/02/07 10:50:46;;;;;;;14.70;10.15;;;4.00;79.90;;;;;;5059130;28;20060;-80
2023/02/07 10:53:58;;;;;;;15.98;11.18;;;4.00;79.90;;;;;;5058899;28;20116;-79
2023/02/07 10:56:26;;;;;;;14.52;9.68;;;4.10;80.00;;;;;;5073938;28;20065;-80
2023/02/07 10:58:54;;;;;;;15.43;9.85;;;4.00;79.80;;;;;;5059220;28;20024;-80
2023/02/07 11:01:24;;;;;;;14.80;10.40;;;4.10;79.90;;;;;;5076183;28;20040;-80
2023/02/07 11:03:51;;;;;;;16.17;9.73;;;4.10;79.90;;;;;;5059534;28;20115;-80
2023/02/07 11:06:31;;;;;;;14.63;9.45;;;4.10;79.90;;;;;;5076420;28;20032;-80
2023/02/07 11:09:22;;;;;;;14.10;9.80;;;4.10;80.00;;;;;;5076091;28;20024;-79
2023/02/07 11:11:49;;;;;;;16.98;9.90;;;4.10;80.00;;;;;;5075936;28;20028;-79
2023/02/07 11:14:20;;;;;;;13.20;8.73;;;4.20;80.00;;;;;;5075755;28;20454;-80
2023/02/07 11:16:46;;;;;;;14.93;9.60;;;4.20;80.00;;;;;;5093863;28;20028;-79
2023/02/07 11:19:20;;;;;;;12.88;8.95;;;4.20;80.10;;;;;;5075752;28;20036;-80
2023/02/07 11:21:48;;;;;;;15.17;9.97;;;4.20;80.10;;;;;;5076060;28;20119;-79
2023/02/07 11:24:18;;;;;;;13.63;8.88;;;4.20;80.10;;;;;;5076972;28;20746;-79
2023/02/07 11:27:04;;;;;;;12.77;9.10;;;4.20;80.10;;;;;;5097951;28;20047;-79
2023/02/07 11:29:36;;;;;;;13.10;9.30;;;4.30;80.20;;;;;;5079651;28;20028;-79
2023/02/07 11:32:02;;;;;;;12.32;8.65;;;4.30;80.20;;;;;;5063023;28;20119;-79
2023/02/07 11:34:45;;;;;;;12.48;8.45;;;4.30;80.20;;;;;;5097395;28;20056;-79
2023/02/07 11:37:21;;;;;;;11.98;8.48;;;4.30;80.20;;;;;;5097684;28;20027;-78
2023/02/07 11:39:52;;;;;;;12.10;8.45;;;4.30;80.20;;;;;;5080314;28;20439;-78
2023/02/07 11:42:28;;;;;;;12.38;8.63;;;4.30;80.20;;;;;;5079829;28;20103;-79
2023/02/07 11:44:54;;;;;;;10.70;7.85;;;4.40;80.30;;;;;;5079189;28;20453;-79
2023/02/07 11:47:30;;;;;;;12.75;8.75;;;4.40;80.30;;;;;;5062383;28;20050;-79
2023/02/07 11:50:02;;;;;;;12.73;8.52;;;4.40;80.40;;;;;;5079531;28;20098;-79
2023/02/07 11:52:31;;;;;;;12.35;8.75;;;4.40;80.40;;;;;;5078618;28;20498;-79
2023/02/07 11:55:01;;;;;;;11.07;7.75;;;4.40;80.30;;;;;;5079276;28;20031;-79
2023/02/07 11:57:32;;;;;;;11.70;8.55;;;4.40;80.30;;;;;;5062490;28;20376;-79
2023/02/07 12:00:15;;;;;;;11.45;8.23;;;4.50;80.40;;;;;;5079681;28;20060;-78
2023/02/07 12:02:50;;;;;;;11.05;8.20;;;4.50;80.40;;;;;;5079847;28;20039;-80
2023/02/07 12:05:27;;;;;;;10.35;7.20;;;4.50;80.40;;;;;;5078724;28;20032;-79
2023/02/07 12:07:58;;;;;;;9.82;7.25;;;4.50;80.40;;;;;;5078649;28;20069;-78
2023/02/07 12:10:33;;;;;;;11.30;7.72;;;4.50;80.40;;;;;;5078933;28;20081;-78
2023/02/07 12:13:11;;;;;;;;;;;4.60;80.50;;;;;;5078961;28;20032;-78
2023/02/07 12:15:47;;;;;;;10.05;7.22;;;4.50;80.20;;;;;;5078880;28;19912;-78
2023/02/07 12:18:35;;;;;;;10.40;7.20;;;4.60;80.20;;;;;;5062089;28;20426;-78
2023/02/07 12:21:34;;;;;;;10.02;7.25;;;4.60;80.40;;;;;;5078728;28;20024;-79
2023/02/07 12:24:25;;;;;;;9.88;6.93;;;4.60;80.40;;;;;;5078860;28;20468;-78
2023/02/07 12:27:03;;;;;;;8.30;6.07;;;4.60;80.40;;;;;;5097016;28;20020;-79
2023/02/07 12:29:47;;;;;;;9.25;6.75;;;4.70;80.40;;;;;;5062021;28;20051;-79
2023/02/07 12:32:25;;;;;;;8.80;6.50;;;4.70;80.50;;;;;;5096511;28;20136;-79
2023/02/07 12:35:02;;;;;;;9.50;6.32;;;4.70;80.50;;;;;;5078434;28;20035;-79
2023/02/07 12:37:55;;;;;;;9.93;6.50;;;4.80;80.50;;;;;;5078503;28;20023;-79
2023/02/07 12:40:36;;;;;;;9.30;6.70;;;4.80;80.60;;;;;;5078731;28;20028;-79
2023/02/07 12:43:20;;;;;;;8.02;6.47;;;4.80;80.50;;;;;;5079146;28;20441;-79
2023/02/07 12:45:56;;;;;;;8.63;6.07;;;4.90;80.50;;;;;;5078926;28;20032;-79
2023/02/07 12:48:46;;;;;;;8.73;6.72;;;4.90;80.50;;;;;;5078373;28;20090;-79
2023/02/07 12:51:28;;;;;;;8.65;6.10;;;4.90;80.50;;;;;;5096527;28;20376;-79
2023/02/07 12:54:22;;;;;;;11.30;7.10;;;5.00;80.40;;;;;;5061213;28;20064;-79
2023/02/07 12:57:05;;;;;;;8.38;6.47;;;5.10;80.50;;;;;;5055178;28;20126;-79
2023/02/07 12:59:31;;;;;;;9.27;7.18;;;5.10;80.50;;;;;;5054809;28;20028;-79
2023/02/07 13:02:34;;;;;;;8.95;6.72;;;5.10;80.50;;;;;;5054488;28;20029;-79
2023/02/07 13:05:17;;;;;;;7.78;5.70;;;5.20;80.70;;;;;;5033174;28;20037;-79
2023/02/07 13:07:50;;;;;;;8.38;6.10;;;5.20;80.60;;;;;;5054541;28;20059;-79
2023/02/07 13:10:24;;;;;;;8.93;6.63;;;5.30;80.70;;;;;;5054622;28;20500;-79